Time;durP1;ratioP1;P1;durP2;ratioP2;P2;SDS_P1;SDS_P2;PMS_P1;PMS_P2;Temp;Humidity;BMP_temperature;BMP_pressure;BME280_temperature;BME280_humidity;BME280_pressure;Samples;Min_cycle;Max_cycle;Signal;HPM_P1;HPM_P2
2021/04/06 00:00:32;;;;;;;0.77;0.60;;;-1.90;99.90;;;;;;5084106;28;20763;-76
2021/04/06 00:03:01;;;;;;;1.52;0.82;;;-2.00;99.90;;;;;;5074369;28;20025;-76
2021/04/06 00:05:28;;;;;;;1.48;0.70;;;-1.90;99.90;;;;;;5052911;28;20128;-76
2021/04/06 00:07:55;;;;;;;3.53;0.70;;;-2.00;99.90;;;;;;5084706;28;20033;-76
2021/04/06 00:10:28;;;;;;;2.00;0.70;;;-2.00;99.90;;;;;;5085295;28;20087;-76
2021/04/06 00:12:56;;;;;;;0.82;0.63;;;-1.90;99.90;;;;;;5053209;28;20059;-76
2021/04/06 00:15:24;;;;;;;2.75;0.75;;;-1.90;99.90;;;;;;5052921;28;20029;-76
2021/04/06 00:17:52;;;;;;;0.65;0.60;;;-1.90;99.90;;;;;;5051539;28;20044;-76
2021/04/06 00:20:21;;;;;;;2.58;0.65;;;-1.90;99.90;;;;;;5051236;28;20036;-76
2021/04/06 00:22:48;;;;;;;1.33;1.08;;;-2.00;99.90;;;;;;5050039;28;20033;-76
2021/04/06 00:25:21;;;;;;;1.40;0.80;;;-2.00;99.90;;;;;;5051745;28;20033;-76
2021/04/06 00:27:50;;;;;;;1.00;0.75;;;-2.00;99.90;;;;;;5051244;28;20488;-76
2021/04/06 00:30:22;;;;;;;1.27;0.75;;;-2.00;99.90;;;;;;5050404;28;20051;-77
2021/04/06 00:33:13;;;;;;;2.10;0.60;;;-2.00;99.90;;;;;;5051266;28;20029;-76
2021/04/06 00:35:40;;;;;;;1.58;1.20;;;-2.00;99.90;;;;;;5032955;28;20071;-76
2021/04/06 00:38:13;;;;;;;1.48;0.90;;;-2.00;99.90;;;;;;5049829;28;20033;-76
2021/04/06 00:40:45;;;;;;;1.30;0.80;;;-2.10;99.90;;;;;;5050902;28;20044;-76
2021/04/06 00:43:11;;;;;;;3.28;0.70;;;-2.10;99.90;;;;;;5083743;28;20078;-76
2021/04/06 00:45:40;;;;;;;4.20;0.95;;;-2.10;99.90;;;;;;5051562;28;20040;-76
2021/04/06 00:48:12;;;;;;;1.58;0.73;;;-2.10;99.90;;;;;;5049982;28;20147;-76
2021/04/06 00:51:03;;;;;;;2.42;1.10;;;-2.10;99.90;;;;;;5049529;28;20399;-76
2021/04/06 00:53:48;;;;;;;3.47;1.00;;;-2.10;99.90;;;;;;5051579;28;20090;-76
2021/04/06 00:56:14;;;;;;;1.67;0.93;;;-2.10;99.90;;;;;;5050607;28;20048;-76
2021/04/06 00:58:42;;;;;;;1.75;0.93;;;-2.10;99.90;;;;;;5049557;28;20072;-76
2021/04/06 01:01:10;;;;;;;1.98;1.20;;;-2.10;99.90;;;;;;5048377;28;20029;-76
2021/04/06 01:03:39;;;;;;;6.60;0.90;;;-2.00;99.90;;;;;;5049979;28;20029;-76
2021/04/06 01:06:07;;;;;;;3.03;0.82;;;-2.10;99.90;;;;;;5051238;28;20036;-76
2021/04/06 01:08:36;;;;;;;1.40;1.00;;;-2.10;99.90;;;;;;5051096;28;20025;-76
2021/04/06 01:11:03;;;;;;;1.10;0.95;;;-2.10;99.90;;;;;;5050430;28;20143;-77
2021/04/06 01:13:29;;;;;;;1.90;0.90;;;-2.10;99.90;;;;;;5049673;28;20047;-77
2021/04/06 01:15:55;;;;;;;1.17;0.98;;;-2.10;99.90;;;;;;5030126;28;612865;-76
2021/04/06 01:18:23;;;;;;;3.17;0.95;;;-2.10;99.90;;;;;;5051471;28;20080;-76
2021/04/06 01:20:48;;;;;;;1.55;1.08;;;-2.10;99.90;;;;;;5050758;28;20515;-76
2021/04/06 01:23:17;;;;;;;3.38;1.52;;;-2.10;99.90;;;;;;5051891;28;20033;-76
2021/04/06 01:25:44;;;;;;;2.08;1.30;;;-2.10;99.90;;;;;;5051744;28;20032;-76
2021/04/06 01:28:11;;;;;;;2.55;1.33;;;-2.00;99.90;;;;;;5051452;28;20029;-76
2021/04/06 01:30:49;;;;;;;2.35;1.30;;;-2.00;99.90;;;;;;5049738;28;20040;-76
2021/04/06 01:33:18;;;;;;;3.95;1.60;;;-2.00;99.90;;;;;;5050426;28;20468;-76
2021/04/06 01:35:45;;;;;;;2.15;1.40;;;-2.00;99.90;;;;;;5056083;28;20441;-76
2021/04/06 01:38:13;;;;;;;2.30;1.55;;;-2.00;99.90;;;;;;5071151;28;20111;-76
2021/04/06 01:40:39;;;;;;;2.47;1.40;;;-2.00;99.90;;;;;;5069911;28;20039;-76
2021/04/06 01:43:07;;;;;;;5.80;1.60;;;-2.00;99.90;;;;;;5070181;28;20059;-76
2021/04/06 01:45:38;;;;;;;4.38;1.73;;;-2.00;99.90;;;;;;5103101;28;20111;-76
2021/04/06 01:48:04;;;;;;;1.88;1.50;;;-2.00;99.90;;;;;;5033852;28;20047;-76
2021/04/06 01:50:30;;;;;;;5.75;1.70;;;-2.00;99.90;;;;;;5033238;28;20495;-76
2021/04/06 01:52:56;;;;;;;5.10;2.35;;;-2.00;99.90;;;;;;5033439;28;20025;-76
2021/04/06 01:55:32;;;;;;;5.07;1.60;;;-2.10;99.90;;;;;;5050084;28;20039;-76
2021/04/06 01:58:00;;;;;;;4.03;1.85;;;-2.10;99.90;;;;;;5050804;28;20037;-76
2021/04/06 02:02:54;;;;;;;2.35;2.05;;;-2.10;99.90;;;;;;5049649;28;20102;-76
2021/04/06 02:05:23;;;;;;;6.65;2.33;;;-2.10;99.90;;;;;;5049925;28;20074;-76
2021/04/06 02:07:51;;;;;;;5.03;2.35;;;-2.00;99.90;;;;;;5050611;28;20033;-76
2021/04/06 02:10:17;;;;;;;3.90;1.98;;;-2.00;99.90;;;;;;5051025;28;20079;-76
2021/04/06 02:12:44;;;;;;;3.33;1.75;;;-2.00;99.90;;;;;;5050574;28;20376;-76
2021/04/06 02:15:12;;;;;;;4.70;2.22;;;-2.00;99.90;;;;;;5050821;28;22104;-76
2021/04/06 02:17:52;;;;;;;5.30;2.25;;;-1.90;99.90;;;;;;5050380;28;20090;-76
2021/04/06 02:20:26;;;;;;;2.22;1.60;;;-1.90;99.90;;;;;;5049332;28;20423;-76
2021/04/06 02:22:53;;;;;;;5.93;2.20;;;-1.90;99.90;;;;;;5050564;28;20025;-76
2021/04/06 02:25:19;;;;;;;5.65;2.35;;;-1.80;99.90;;;;;;5050629;28;20036;-76
2021/04/06 02:27:45;;;;;;;1.95;1.60;;;-1.80;99.90;;;;;;5050158;28;20025;-76
2021/04/06 02:30:11;;;;;;;3.80;1.70;;;-1.70;99.90;;;;;;5050802;28;20029;-76
2021/04/06 02:32:37;;;;;;;5.40;2.00;;;-1.70;99.90;;;;;;5031985;28;20702;-77
2021/04/06 02:35:06;;;;;;;6.18;2.28;;;-1.70;99.90;;;;;;5049615;28;20029;-76
2021/04/06 02:37:35;;;;;;;5.80;2.30;;;-1.60;99.90;;;;;;5032457;28;20447;-76
2021/04/06 02:40:08;;;;;;;6.32;2.38;;;-1.60;99.90;;;;;;5050616;28;20033;-76
2021/04/06 02:42:38;;;;;;;4.82;2.38;;;-1.60;99.90;;;;;;5049841;28;20032;-76
2021/04/06 02:45:10;;;;;;;3.97;2.10;;;-1.50;99.90;;;;;;5050607;28;20040;-76
2021/04/06 02:47:39;;;;;;;2.63;1.95;;;-1.50;99.90;;;;;;5048603;28;20059;-76
2021/04/06 02:50:06;;;;;;;2.33;1.60;;;-1.60;99.90;;;;;;5050687;28;20033;-76
2021/04/06 02:52:32;;;;;;;2.65;2.13;;;-1.60;99.90;;;;;;5049563;28;20396;-76
2021/04/06 02:54:58;;;;;;;4.63;2.25;;;-1.60;99.90;;;;;;5049136;28;20029;-76
2021/04/06 02:57:26;;;;;;;3.90;2.05;;;-1.60;99.90;;;;;;5048438;28;20037;-76
2021/04/06 02:59:52;;;;;;;3.75;1.75;;;-1.60;99.90;;;;;;5049272;28;20033;-76
2021/04/06 03:02:19;;;;;;;4.35;1.77;;;-1.60;99.90;;;;;;5048178;28;20029;-76
2021/04/06 03:04:46;;;;;;;5.00;1.95;;;-1.60;99.90;;;;;;5050410;28;20056;-76
2021/04/06 03:07:29;;;;;;;2.28;1.63;;;-1.60;99.90;;;;;;5049597;28;20044;-76
2021/04/06 03:09:59;;;;;;;7.72;1.85;;;-1.60;99.90;;;;;;5048984;28;20025;-76
2021/04/06 03:12:30;;;;;;;10.43;1.83;;;-1.60;99.90;;;;;;5048256;28;20025;-76
2021/04/06 03:15:03;;;;;;;3.75;1.70;;;-1.60;99.90;;;;;;5050268;28;20520;-76
2021/04/06 03:17:45;;;;;;;2.78;1.83;;;-1.60;99.90;;;;;;5049603;28;20036;-76
2021/04/06 03:20:12;;;;;;;3.13;1.73;;;-1.70;99.90;;;;;;5049752;28;20021;-77
2021/04/06 03:22:38;;;;;;;5.78;1.80;;;-1.70;99.90;;;;;;5048024;28;20021;-76
2021/04/06 03:25:05;;;;;;;1.80;1.30;;;-1.70;99.90;;;;;;5048818;28;20043;-76
2021/04/06 03:27:32;;;;;;;4.57;1.83;;;-1.70;99.90;;;;;;5048275;28;20476;-76
2021/04/06 03:29:58;;;;;;;4.00;1.60;;;-1.70;99.90;;;;;;5050188;28;20099;-76
2021/04/06 03:32:24;;;;;;;3.55;1.55;;;-1.70;99.90;;;;;;5047911;28;20065;-77
2021/04/06 03:34:52;;;;;;;3.78;1.52;;;-1.70;99.90;;;;;;5050129;28;20036;-76
2021/04/06 03:37:20;;;;;;;3.78;1.40;;;-1.70;99.90;;;;;;5048346;28;20033;-76
2021/04/06 03:39:47;;;;;;;1.52;1.33;;;-1.70;99.90;;;;;;5050126;28;20495;-76
2021/04/06 03:42:21;;;;;;;5.75;2.10;;;-1.70;99.90;;;;;;5047975;28;20024;-76
2021/04/06 03:44:47;;;;;;;5.88;1.55;;;-1.70;99.90;;;;;;5050102;28;20139;-77
2021/04/06 03:47:13;;;;;;;2.53;1.80;;;-1.70;99.90;;;;;;5043086;28;20658;-76
2021/04/06 03:49:47;;;;;;;2.53;1.48;;;-1.70;99.90;;;;;;5030174;28;20021;-76
2021/04/06 03:52:13;;;;;;;3.65;1.38;;;-1.80;99.90;;;;;;5029350;28;20030;-76
2021/04/06 03:54:42;;;;;;;2.00;1.40;;;-1.80;99.90;;;;;;5029907;28;20021;-76
2021/04/06 03:57:23;;;;;;;1.10;0.65;;;-1.80;99.90;;;;;;5029322;28;20040;-76
2021/04/06 03:59:49;;;;;;;6.95;1.60;;;-1.80;99.90;;;;;;5030059;28;20036;-76
2021/04/06 04:02:15;;;;;;;2.53;1.58;;;-1.70;99.90;;;;;;5044539;28;20028;-76
2021/04/06 04:04:41;;;;;;;2.00;1.27;;;-1.80;99.90;;;;;;5041991;28;20388;-77
2021/04/06 04:07:07;;;;;;;3.35;1.50;;;-1.80;99.90;;;;;;5049228;28;20082;-76
2021/04/06 04:09:33;;;;;;;2.13;1.13;;;-1.80;99.90;;;;;;5049815;28;20029;-76
2021/04/06 04:11:59;;;;;;;3.92;1.45;;;-1.70;99.90;;;;;;5052802;28;20622;-77
2021/04/06 04:14:25;;;;;;;2.22;1.30;;;-1.70;99.90;;;;;;5085826;28;20029;-76
2021/04/06 04:16:53;;;;;;;4.07;1.67;;;-1.70;99.90;;;;;;5052646;28;20112;-77
2021/04/06 04:19:19;;;;;;;4.93;1.70;;;-1.70;99.90;;;;;;5053072;28;20029;-76
2021/04/06 04:21:45;;;;;;;4.88;1.42;;;-1.70;99.90;;;;;;5052999;28;20187;-76
2021/04/06 04:24:11;;;;;;;1.92;1.83;;;-1.70;99.90;;;;;;5085632;28;20120;-76
2021/04/06 04:26:36;;;;;;;4.93;1.52;;;-1.70;99.90;;;;;;5052216;28;20033;-75
2021/04/06 04:29:02;;;;;;;4.72;1.33;;;-1.70;99.90;;;;;;5053291;28;20479;-76
2021/04/06 04:31:28;;;;;;;3.03;1.77;;;-1.70;99.90;;;;;;5067662;28;20061;-75
2021/04/06 04:33:54;;;;;;;3.55;1.45;;;-1.80;99.90;;;;;;5091290;28;20353;-75
2021/04/06 04:36:19;;;;;;;4.75;1.55;;;-1.80;99.90;;;;;;5052863;28;20503;-76
2021/04/06 04:38:45;;;;;;;3.08;1.48;;;-1.80;99.90;;;;;;5052357;28;20027;-75
2021/04/06 04:41:11;;;;;;;5.40;1.30;;;-1.80;99.90;;;;;;5067548;28;20454;-76
2021/04/06 04:43:37;;;;;;;3.67;1.13;;;-1.80;99.90;;;;;;5084986;28;20060;-75
2021/04/06 04:46:02;;;;;;;7.38;2.10;;;-1.80;99.90;;;;;;5051453;28;20041;-76
2021/04/06 04:48:28;;;;;;;2.60;1.52;;;-1.80;99.90;;;;;;5067461;28;20460;-76
2021/04/06 04:50:54;;;;;;;4.53;1.48;;;-1.80;99.90;;;;;;5083951;28;20040;-76
2021/04/06 04:53:19;;;;;;;4.60;1.50;;;-1.80;99.90;;;;;;5051270;28;20123;-76
2021/04/06 04:55:45;;;;;;;4.53;1.63;;;-1.80;99.90;;;;;;5068303;28;20072;-76
2021/04/06 04:58:11;;;;;;;2.13;1.27;;;-1.80;99.90;;;;;;5067481;28;20059;-76
2021/04/06 05:00:37;;;;;;;1.75;1.40;;;-1.80;99.90;;;;;;5051892;28;20403;-76
2021/04/06 05:03:03;;;;;;;6.55;1.65;;;-1.80;99.90;;;;;;5052685;28;20025;-76
2021/04/06 05:05:29;;;;;;;2.70;1.40;;;-1.80;99.90;;;;;;5069695;28;20033;-76
2021/04/06 05:07:54;;;;;;;2.55;1.67;;;-1.80;99.90;;;;;;5053382;28;20445;-76
2021/04/06 05:10:20;;;;;;;4.10;1.20;;;-1.80;99.90;;;;;;5047815;28;20044;-76
2021/04/06 05:12:47;;;;;;;2.72;1.55;;;-1.70;99.90;;;;;;5050474;28;20171;-76
2021/04/06 05:15:14;;;;;;;1.63;1.35;;;-1.70;99.90;;;;;;5067310;28;20041;-76
2021/04/06 05:17:39;;;;;;;2.88;1.33;;;-1.70;99.90;;;;;;5051405;28;20032;-76
2021/04/06 05:20:06;;;;;;;3.63;1.20;;;-1.60;99.90;;;;;;5066859;28;20037;-76
2021/04/06 05:22:32;;;;;;;4.45;1.33;;;-1.60;99.90;;;;;;5049339;28;20040;-76
2021/04/06 05:24:58;;;;;;;2.28;1.30;;;-1.60;99.90;;;;;;5051045;28;20025;-76
2021/04/06 05:27:24;;;;;;;6.82;1.85;;;-1.60;99.90;;;;;;5050192;28;20040;-76
2021/04/06 05:29:50;;;;;;;4.75;1.50;;;-1.50;99.90;;;;;;5051998;28;20036;-76
2021/04/06 05:32:16;;;;;;;3.17;1.25;;;-1.50;99.90;;;;;;5051563;28;20464;-77
2021/04/06 05:34:41;;;;;;;4.43;1.60;;;-1.50;99.90;;;;;;5052176;28;20040;-76
2021/04/06 05:37:07;;;;;;;1.77;1.10;;;-1.50;99.90;;;;;;5050202;28;20430;-76
2021/04/06 05:39:33;;;;;;;2.15;1.15;;;-1.50;99.90;;;;;;5052107;28;20044;-76
2021/04/06 05:41:59;;;;;;;7.18;1.55;;;-1.50;99.90;;;;;;5050032;28;20033;-76
2021/04/06 05:44:25;;;;;;;5.25;1.55;;;-1.50;99.90;;;;;;5050647;28;20098;-76
2021/04/06 05:46:52;;;;;;;6.07;1.90;;;-1.40;99.90;;;;;;5051301;28;20484;-76
2021/04/06 05:49:27;;;;;;;13.18;1.70;;;-1.40;99.90;;;;;;5050682;28;20029;-76
2021/04/06 05:51:54;;;;;;;2.50;1.60;;;-1.40;99.90;;;;;;5050017;28;20490;-76
2021/04/06 05:54:22;;;;;;;4.82;1.45;;;-1.40;99.90;;;;;;5050534;28;20053;-76
2021/04/06 05:56:47;;;;;;;2.55;1.60;;;-1.40;99.90;;;;;;5051127;28;20032;-76
2021/04/06 05:59:13;;;;;;;8.43;1.60;;;-1.30;99.90;;;;;;5064725;28;20044;-76
2021/04/06 06:01:40;;;;;;;2.33;1.05;;;-1.40;99.90;;;;;;5064757;28;20388;-76
2021/04/06 06:04:11;;;;;;;3.67;1.50;;;-1.30;99.90;;;;;;5051993;28;20045;-76
2021/04/06 06:06:37;;;;;;;4.97;1.55;;;-1.20;99.90;;;;;;5053167;28;20029;-76
2021/04/06 06:09:04;;;;;;;3.53;1.48;;;-1.20;99.90;;;;;;5051715;28;20029;-76
2021/04/06 06:11:32;;;;;;;7.05;1.60;;;-1.10;99.90;;;;;;5066435;28;20036;-76
2021/04/06 06:13:58;;;;;;;2.42;1.63;;;-1.10;99.90;;;;;;5054662;28;20479;-76
2021/04/06 06:16:31;;;;;;;1.80;1.35;;;-1.00;99.90;;;;;;5059460;28;20391;-76
2021/04/06 06:19:22;;;;;;;2.58;1.30;;;-0.90;99.90;;;;;;5056178;28;20032;-76
2021/04/06 06:21:52;;;;;;;6.43;1.90;;;-0.80;99.90;;;;;;5057587;28;20020;-76
2021/04/06 06:24:30;;;;;;;2.83;1.52;;;-0.70;99.90;;;;;;5056179;28;20408;-76
2021/04/06 06:26:57;;;;;;;4.53;1.33;;;-0.70;99.90;;;;;;5059466;28;20111;-76
2021/04/06 06:29:26;;;;;;;3.13;1.60;;;-0.60;99.90;;;;;;5057411;28;20405;-76
2021/04/06 06:31:55;;;;;;;4.40;1.73;;;-0.60;99.90;;;;;;5055847;28;20036;-76
2021/04/06 06:34:25;;;;;;;3.03;1.52;;;-0.50;99.90;;;;;;5057299;28;20033;-76
2021/04/06 06:37:12;;;;;;;3.25;2.10;;;-0.40;99.90;;;;;;5063488;28;20020;-76
2021/04/06 06:40:00;;;;;;;3.55;1.50;;;0.00;99.90;;;;;;5088646;28;20052;-76
2021/04/06 06:42:35;;;;;;;5.13;1.75;;;0.30;99.90;;;;;;5056268;28;20044;-77
2021/04/06 06:45:02;;;;;;;3.55;1.48;;;0.60;99.90;;;;;;5057906;28;20039;-76
2021/04/06 06:47:31;;;;;;;3.92;1.38;;;0.70;99.90;;;;;;5058237;28;20028;-76
2021/04/06 06:50:08;;;;;;;4.47;1.23;;;0.80;99.90;;;;;;5060884;28;20033;-76
2021/04/06 06:52:34;;;;;;;1.67;1.33;;;0.80;99.90;;;;;;5060685;28;20048;-76
2021/04/06 06:55:16;;;;;;;3.85;1.33;;;0.80;99.90;;;;;;5058407;28;20021;-76
2021/04/06 06:57:43;;;;;;;4.78;1.23;;;0.70;99.90;;;;;;5056930;28;20523;-76
2021/04/06 07:00:20;;;;;;;2.58;1.48;;;0.70;99.90;;;;;;5058351;28;20036;-76
2021/04/06 07:02:46;;;;;;;4.95;1.55;;;1.00;99.90;;;;;;5057570;28;20078;-75
2021/04/06 07:05:22;;;;;;;4.53;1.90;;;1.40;99.90;;;;;;5051967;28;20437;-75
2021/04/06 07:08:09;;;;;;;2.95;1.63;;;1.80;99.90;;;;;;5049224;28;20026;-76
2021/04/06 07:10:43;;;;;;;3.10;1.52;;;2.00;99.90;;;;;;5079949;28;20029;-76
2021/04/06 07:13:20;;;;;;;2.53;1.50;;;2.00;99.90;;;;;;5052654;28;20029;-75
2021/04/06 07:15:48;;;;;;;4.15;1.98;;;2.10;99.90;;;;;;5052519;28;20037;-76
2021/04/06 07:18:20;;;;;;;7.03;2.28;;;2.40;99.90;;;;;;5048710;28;20447;-76
2021/04/06 07:20:55;;;;;;;5.50;1.70;;;2.80;99.90;;;;;;5064469;28;20048;-76
2021/04/06 07:23:57;;;;;;;4.20;1.65;;;3.20;99.90;;;;;;5058173;28;20459;-76
2021/04/06 07:26:25;;;;;;;3.53;1.67;;;3.70;99.90;;;;;;5059548;28;20031;-76
2021/04/06 07:28:52;;;;;;;2.90;1.80;;;4.30;99.90;;;;;;5055380;28;20025;-76
2021/04/06 07:31:18;;;;;;;2.10;1.45;;;4.70;99.90;;;;;;5057954;28;20028;-76
2021/04/06 07:33:48;;;;;;;4.03;1.88;;;4.80;99.90;;;;;;5054168;28;20026;-76
2021/04/06 07:36:18;;;;;;;3.92;1.63;;;4.60;99.90;;;;;;5055518;28;20048;-75
2021/04/06 07:38:53;;;;;;;3.60;1.95;;;4.30;99.90;;;;;;5064032;28;20047;-75
2021/04/06 07:41:22;;;;;;;2.42;1.52;;;4.20;99.90;;;;;;5051301;28;20029;-75
2021/04/06 07:43:50;;;;;;;1.88;1.60;;;4.50;99.90;;;;;;5054900;28;20475;-75
2021/04/06 07:46:34;;;;;;;4.95;1.90;;;4.70;99.90;;;;;;5055807;28;20501;-75
2021/04/06 07:49:01;;;;;;;3.58;1.90;;;5.30;99.90;;;;;;5061776;28;20025;-75
2021/04/06 07:51:29;;;;;;;1.70;1.20;;;5.80;99.90;;;;;;5061906;28;20791;-74
2021/04/06 07:54:05;;;;;;;5.35;1.75;;;6.10;99.90;;;;;;5056044;28;20074;-75
2021/04/06 07:56:43;;;;;;;5.30;1.50;;;6.10;99.90;;;;;;5058432;28;20024;-73
2021/04/06 07:59:29;;;;;;;1.52;1.15;;;5.90;99.90;;;;;;5054935;28;20020;-74
2021/04/06 08:01:56;;;;;;;2.95;1.40;;;5.60;99.90;;;;;;5040363;28;20032;-73
2021/04/06 08:04:26;;;;;;;1.33;1.10;;;5.20;99.90;;;;;;5048838;28;20020;-73
2021/04/06 08:06:56;;;;;;;2.13;1.10;;;4.80;99.90;;;;;;5048614;28;20033;-75
2021/04/06 08:09:32;;;;;;;1.92;1.48;;;4.40;99.90;;;;;;5053019;28;20029;-73
2021/04/06 08:12:06;;;;;;;;;;;4.10;99.90;;;;;;5053884;28;20104;-74
2021/04/06 08:14:48;;;;;;;3.25;1.85;;;4.10;99.90;;;;;;5043779;28;20397;-73
2021/04/06 08:17:26;;;;;;;7.13;1.60;;;3.90;99.90;;;;;;5056003;28;20025;-73
2021/04/06 08:19:52;;;;;;;3.72;1.42;;;3.80;99.90;;;;;;5049789;28;20435;-73
2021/04/06 08:22:28;;;;;;;5.13;1.88;;;3.70;99.90;;;;;;5047174;28;20037;-73
2021/04/06 08:25:20;;;;;;;4.63;1.80;;;3.60;99.90;;;;;;5056584;28;20468;-74
2021/04/06 08:28:00;;;;;;;3.33;1.55;;;3.40;99.90;;;;;;5053367;28;20116;-74
2021/04/06 08:30:34;;;;;;;3.17;1.63;;;3.20;99.90;;;;;;5057516;28;20070;-74
2021/04/06 08:33:00;;;;;;;3.67;1.77;;;2.90;99.90;;;;;;5055240;28;20029;-74
2021/04/06 08:38:32;;;;;;;4.55;2.35;;;2.60;99.90;;;;;;5057639;28;20426;-74
2021/04/06 08:41:10;;;;;;;4.75;2.33;;;2.60;99.90;;;;;;5057097;28;20021;-73
2021/04/06 08:43:46;;;;;;;5.63;2.00;;;2.60;99.90;;;;;;5055963;28;20024;-74
2021/04/06 08:46:23;;;;;;;4.95;2.03;;;2.60;99.90;;;;;;5056138;28;20498;-74
2021/04/06 08:48:51;;;;;;;2.33;1.95;;;2.70;99.90;;;;;;5051883;28;20476;-74
2021/04/06 08:51:33;;;;;;;4.35;1.98;;;2.60;99.90;;;;;;5056864;28;20048;-73
2021/04/06 08:54:02;;;;;;;3.85;2.10;;;2.60;99.90;;;;;;5051750;28;20487;-74
2021/04/06 08:56:28;;;;;;;7.53;2.35;;;2.50;99.90;;;;;;5055063;28;20048;-73
2021/04/06 08:59:17;;;;;;;4.63;2.30;;;2.60;99.90;;;;;;5059845;28;20031;-73
2021/04/06 09:02:10;;;;;;;2.88;2.10;;;2.60;99.90;;;;;;5049978;28;20459;-73
2021/04/06 09:04:43;;;;;;;5.38;2.72;;;2.60;99.90;;;;;;5052710;28;20043;-74
2021/04/06 09:07:23;;;;;;;4.75;2.40;;;2.50;99.90;;;;;;5057002;28;20029;-73
2021/04/06 09:09:53;;;;;;;3.03;2.22;;;2.50;99.90;;;;;;5088516;28;20059;-74
2021/04/06 09:12:19;;;;;;;5.10;1.77;;;2.40;99.90;;;;;;5055246;28;20056;-74
2021/04/06 09:14:46;;;;;;;2.95;2.20;;;2.30;99.90;;;;;;5054489;28;20086;-72
2021/04/06 09:17:11;;;;;;;4.63;2.10;;;2.20;99.90;;;;;;5054108;28;20041;-73
2021/04/06 09:19:39;;;;;;;2.50;2.00;;;2.10;99.90;;;;;;5048284;28;20041;-72
2021/04/06 09:22:08;;;;;;;3.83;2.05;;;2.00;99.90;;;;;;5047831;28;20028;-72
2021/04/06 09:24:33;;;;;;;3.63;2.10;;;2.00;99.90;;;;;;5051774;28;20583;-73
2021/04/06 09:27:00;;;;;;;4.05;1.95;;;1.90;99.90;;;;;;5047466;28;20037;-72
2021/04/06 09:29:28;;;;;;;2.03;1.50;;;1.80;99.90;;;;;;5047512;28;20778;-72
2021/04/06 09:32:06;;;;;;;2.38;1.65;;;1.70;99.90;;;;;;5050991;28;20039;-73
2021/04/06 09:34:37;;;;;;;2.85;1.77;;;1.60;99.90;;;;;;5039813;28;20033;-73
2021/04/06 09:37:09;;;;;;;6.20;1.52;;;1.50;99.90;;;;;;5049673;28;20076;-72
2021/04/06 09:39:37;;;;;;;2.85;1.98;;;1.50;99.90;;;;;;5058791;28;20112;-72
2021/04/06 09:42:05;;;;;;;2.72;1.60;;;1.60;99.90;;;;;;5047462;28;20075;-72
2021/04/06 09:44:36;;;;;;;4.35;1.92;;;1.90;99.90;;;;;;5047270;28;20047;-72
2021/04/06 09:47:17;;;;;;;1.95;1.48;;;2.10;99.90;;;;;;5074985;28;20041;-73
2021/04/06 09:49:48;;;;;;;2.80;1.55;;;2.20;99.90;;;;;;5046367;28;20021;-72
2021/04/06 09:52:16;;;;;;;2.80;1.73;;;2.50;99.90;;;;;;5046133;28;20875;-73
2021/04/06 09:54:58;;;;;;;1.88;1.58;;;2.90;99.90;;;;;;5078452;28;20027;-73
2021/04/06 09:57:26;;;;;;;3.15;1.90;;;3.20;99.90;;;;;;5046016;28;20021;-73
2021/04/06 09:59:54;;;;;;;1.73;1.35;;;3.40;99.90;;;;;;5044827;28;20140;-73
2021/04/06 10:02:23;;;;;;;3.80;1.40;;;3.50;99.90;;;;;;5044626;28;20029;-73
2021/04/06 10:04:50;;;;;;;3.08;1.65;;;3.40;99.90;;;;;;5046566;28;20068;-73
2021/04/06 10:07:23;;;;;;;2.92;1.33;;;3.40;99.90;;;;;;5044467;28;20128;-73
2021/04/06 10:09:54;;;;;;;1.33;1.23;;;3.40;99.90;;;;;;5049620;28;20075;-73
2021/04/06 10:12:22;;;;;;;6.15;1.40;;;3.30;99.90;;;;;;5049952;28;20036;-73
2021/04/06 10:14:48;;;;;;;1.70;1.17;;;3.30;99.90;;;;;;5054193;28;20024;-73
2021/04/06 10:17:33;;;;;;;2.75;1.45;;;3.40;99.90;;;;;;5049011;28;20107;-72
2021/04/06 10:20:06;;;;;;;1.90;1.40;;;3.50;99.90;;;;;;5050523;28;20045;-72
2021/04/06 10:22:45;;;;;;;2.13;1.08;;;3.60;99.90;;;;;;5078957;28;20117;-72
2021/04/06 10:25:38;;;;;;;1.30;1.20;;;3.80;99.90;;;;;;5050226;28;20036;-71
2021/04/06 10:28:06;;;;;;;1.85;1.33;;;3.80;99.90;;;;;;5039791;28;20044;-71
2021/04/06 10:30:37;;;;;;;3.80;1.90;;;3.80;99.90;;;;;;5052040;28;20025;-71
2021/04/06 10:33:12;;;;;;;3.50;1.40;;;3.80;99.90;;;;;;5050080;28;20024;-71
2021/04/06 10:35:46;;;;;;;3.80;1.30;;;3.70;99.90;;;;;;5051079;28;20713;-71
2021/04/06 10:38:25;;;;;;;3.63;1.35;;;3.60;99.90;;;;;;5083396;28;20044;-71
2021/04/06 10:41:17;;;;;;;1.77;1.10;;;3.30;99.90;;;;;;5051700;28;20032;-72
2021/04/06 10:43:49;;;;;;;4.45;1.25;;;3.10;99.90;;;;;;5052883;28;20455;-72
2021/04/06 10:46:18;;;;;;;1.90;1.35;;;3.00;99.90;;;;;;5055505;28;20064;-72
2021/04/06 10:48:50;;;;;;;5.45;1.10;;;2.80;99.90;;;;;;5052764;28;20023;-72
2021/04/06 10:51:18;;;;;;;1.85;0.90;;;2.60;99.90;;;;;;5054684;28;20028;-72
2021/04/06 10:54:02;;;;;;;2.47;1.08;;;2.50;99.90;;;;;;5052709;28;20049;-71
2021/04/06 10:56:31;;;;;;;2.25;1.00;;;2.40;99.90;;;;;;5044290;28;20025;-71
2021/04/06 10:59:00;;;;;;;1.92;1.00;;;2.20;99.90;;;;;;5061739;28;20115;-71
2021/04/06 11:01:40;;;;;;;1.67;1.00;;;2.10;99.90;;;;;;5039077;28;20079;-71
2021/04/06 11:04:18;;;;;;;1.98;1.48;;;2.00;99.90;;;;;;5047324;28;20103;-71
2021/04/06 11:06:59;;;;;;;3.47;1.40;;;2.10;99.90;;;;;;5045287;28;20575;-71
2021/04/06 11:09:38;;;;;;;2.58;1.25;;;2.20;99.90;;;;;;5039438;28;20108;-70
2021/04/06 11:12:06;;;;;;;2.63;1.60;;;2.30;99.90;;;;;;5045897;28;20029;-71
2021/04/06 11:14:33;;;;;;;4.07;0.90;;;2.40;99.90;;;;;;5045097;28;20562;-72
2021/04/06 11:17:05;;;;;;;3.28;1.40;;;2.40;99.90;;;;;;5051515;28;20654;-72
2021/04/06 11:19:38;;;;;;;1.88;1.02;;;2.50;99.90;;;;;;5049415;28;20037;-72
2021/04/06 11:22:12;;;;;;;2.30;1.40;;;2.70;99.90;;;;;;5058091;28;20131;-71
2021/04/06 11:24:40;;;;;;;1.88;1.35;;;2.90;99.90;;;;;;5057218;28;20052;-73
2021/04/06 11:27:08;;;;;;;1.88;0.70;;;3.20;99.90;;;;;;5049078;28;20469;-72
2021/04/06 11:29:35;;;;;;;1.40;1.00;;;3.30;99.90;;;;;;5049942;28;20017;-72
2021/04/06 11:32:07;;;;;;;1.98;0.98;;;3.40;99.90;;;;;;5048147;28;20029;-73
2021/04/06 11:34:33;;;;;;;2.55;1.02;;;3.40;99.90;;;;;;5080998;28;20036;-73
2021/04/06 11:37:00;;;;;;;2.30;1.08;;;3.30;99.90;;;;;;5049505;28;20112;-72
2021/04/06 11:39:31;;;;;;;4.55;1.30;;;3.30;99.90;;;;;;5046360;28;20060;-72
2021/04/06 11:41:59;;;;;;;2.15;1.20;;;3.20;99.90;;;;;;5054367;28;20036;-71
2021/04/06 11:44:24;;;;;;;3.70;1.05;;;3.10;99.90;;;;;;5057834;28;20498;-72
2021/04/06 11:46:52;;;;;;;2.08;1.10;;;2.90;99.90;;;;;;5058184;28;20045;-72
2021/04/06 11:49:19;;;;;;;1.75;1.27;;;2.60;99.90;;;;;;5054455;28;20028;-72
2021/04/06 11:51:45;;;;;;;3.05;1.80;;;2.40;99.90;;;;;;5058129;28;20029;-72
2021/04/06 11:54:13;;;;;;;1.83;1.30;;;2.20;99.90;;;;;;5059238;28;20025;-71
2021/04/06 11:56:40;;;;;;;2.60;1.25;;;2.00;99.90;;;;;;5058913;28;20103;-72
2021/04/06 11:59:06;;;;;;;2.05;1.40;;;1.90;99.90;;;;;;5058711;28;20056;-72
2021/04/06 12:01:32;;;;;;;1.30;1.20;;;1.70;99.90;;;;;;5059122;28;20052;-72
2021/04/06 12:03:59;;;;;;;1.80;1.20;;;1.60;99.90;;;;;;5049433;28;20043;-72
2021/04/06 12:06:25;;;;;;;1.80;1.23;;;1.50;99.90;;;;;;5048404;28;20028;-71
2021/04/06 12:08:51;;;;;;;2.08;1.13;;;1.50;99.90;;;;;;5053447;28;20025;-72
2021/04/06 12:11:17;;;;;;;3.20;1.25;;;1.50;99.90;;;;;;5049391;28;20032;-71
2021/04/06 12:13:43;;;;;;;3.22;1.33;;;1.60;99.90;;;;;;5047668;28;20032;-71
2021/04/06 12:16:09;;;;;;;1.33;0.77;;;1.70;99.90;;;;;;5049361;28;20037;-72
2021/04/06 12:18:35;;;;;;;1.23;0.82;;;1.90;99.90;;;;;;5046942;28;20099;-72
2021/04/06 12:21:00;;;;;;;1.38;1.00;;;2.10;99.90;;;;;;5048890;28;20135;-72
2021/04/06 12:23:26;;;;;;;5.47;1.23;;;2.20;99.90;;;;;;5048714;28;20037;-72
2021/04/06 12:25:55;;;;;;;1.52;1.00;;;2.30;99.90;;;;;;5048583;28;20037;-73
2021/04/06 12:28:21;;;;;;;1.02;0.52;;;2.50;99.90;;;;;;5046691;28;20032;-73
2021/04/06 12:30:46;;;;;;;1.67;1.13;;;2.60;99.90;;;;;;5045519;28;20029;-72
2021/04/06 12:33:13;;;;;;;2.65;1.10;;;2.70;99.90;;;;;;5047202;28;20025;-72
2021/04/06 12:35:38;;;;;;;2.13;1.08;;;2.80;99.90;;;;;;5047734;28;20029;-73
2021/04/06 12:38:04;;;;;;;1.92;0.95;;;2.90;99.90;;;;;;5064080;28;20119;-72
2021/04/06 12:40:32;;;;;;;3.03;1.00;;;3.00;99.90;;;;;;5054115;28;20046;-73
2021/04/06 12:42:58;;;;;;;3.22;1.15;;;3.20;99.90;;;;;;5052731;28;20029;-72
2021/04/06 12:45:24;;;;;;;3.17;0.85;;;3.30;99.90;;;;;;5053414;28;20029;-72
2021/04/06 12:47:49;;;;;;;2.88;0.90;;;3.50;99.90;;;;;;5054835;28;20036;-73
2021/04/06 12:50:16;;;;;;;1.10;0.90;;;3.60;99.90;;;;;;5052747;28;20025;-72
2021/04/06 12:52:42;;;;;;;3.33;0.60;;;3.80;99.90;;;;;;5051572;28;20020;-72
2021/04/06 12:55:08;;;;;;;1.15;0.80;;;3.90;99.90;;;;;;5059718;28;20025;-73
2021/04/06 12:57:34;;;;;;;1.35;1.05;;;3.90;99.90;;;;;;5055380;28;20043;-73
2021/04/06 13:00:00;;;;;;;1.15;0.73;;;3.90;99.90;;;;;;5050452;28;20021;-72
2021/04/06 13:02:26;;;;;;;1.08;0.75;;;3.80;99.90;;;;;;5051732;28;20690;-72
2021/04/06 13:04:52;;;;;;;1.15;0.75;;;3.80;99.90;;;;;;5055954;28;20029;-72
2021/04/06 13:07:18;;;;;;;2.30;0.80;;;3.80;99.90;;;;;;5054474;28;20032;-72
2021/04/06 13:09:43;;;;;;;1.73;0.75;;;3.70;99.90;;;;;;5049468;28;20412;-72
2021/04/06 13:12:09;;;;;;;1.48;0.65;;;3.60;99.90;;;;;;5045137;28;20137;-72